This is the latest recevied weather packets stored in our database for station/object KMEZ. If no packets are shown the sender has not sent any weather packets the latest 10 day(s).
| Time | Temp. | Humidity | Pressure | Rain* | Wind** | Luminosity | Snow |
|---|---|---|---|---|---|---|---|
| 1777740220 | 18.89° C | 39% | 1020.7 hPa | - | - | - | - |
| 1777739616 | 18.89° C | 37% | 1020.7 hPa | - | - | - | - |
| 1777739015 | 18.89° C | 37% | 1020.7 hPa | - | - | - | - |
| 1777738417 | 17.78° C | 36% | 1020.7 hPa | - | - | - | - |
| 1777737820 | 17.78° C | 36% | 1020.7 hPa | - | - | - | - |
| 1777737343 | 17.78° C | 36% | 1020.7 hPa | - | - | - | - |
| 1777736619 | 17.78° C | 36% | 1020.7 hPa | - | - | - | - |
| 1777736021 | 17.78° C | 36% | 1020.7 hPa | - | - | - | - |
| 1777735416 | 17.78° C | 36% | 1020.7 hPa | - | - | - | - |
| 1777734817 | 16.67° C | 45% | 1020.7 hPa | - | - | - | - |
| 1777734216 | 16.67° C | 45% | 1020.7 hPa | - | - | - | - |
| 1777733617 | 15.56° C | 48% | 1020.7 hPa | - | - | - | - |
| 1777733017 | 15.56° C | 48% | 1020.7 hPa | - | - | - | - |
| 1777732419 | 15° C | 51% | 1020.7 hPa | - | - | - | - |
| 1777731817 | 15° C | 51% | 1020.7 hPa | - | - | - | - |
| 1777731217 | 13.89° C | 54% | 1020.7 hPa | - | - | - | - |
| 1777730620 | 13.89° C | 54% | 1020.7 hPa | - | - | - | - |
| 1777730020 | 12.78° C | 66% | 1020.3 hPa | - | - | - | - |
| 1777729417 | 12.78° C | 66% | 1020.3 hPa | - | - | - | - |
| 1777728821 | 10.56° C | 76% | 1020.3 hPa | - | - | - | - |
| 1777728220 | 10.56° C | 76% | 1020.3 hPa | - | - | - | - |
| 1777727618 | 7.78° C | 87% | 1020 hPa | - | - | - | - |
| 1777727018 | 7.78° C | 87% | 1020 hPa | - | - | - | - |
| 1777726413 | 6.67° C | 93% | 1020 hPa | - | - | - | - |
| 1777725818 | 5.56° C | 93% | 1019.3 hPa | - | - | - | - |
* Rain since midnight (hover to see other rain measurements)
** Current wind speed in m/s (hover to see current wind gust speed)